Terminal Aerodrome Forecast
Issued by NWS Cleveland, OH

Home | Current Version | Previous Version | Text Only | Print | Product List | Glossary Off
Versions: 1 2 3 4 5 6 7 8 9 10 11 12 13 14 15 16 17

000
FTUS41 KCLE 161734
TAFYNG
TAF
KYNG 161734Z 1618/1718 14005KT P6SM OVC060
     FM162300 12005KT 5SM BR VCSH SCT012 OVC025
     FM170300 12007KT 2SM -RA BR OVC008=

USA.gov is the U.S. government's official web portal to all federal, state and local government web resources and services.